Time;durP1;ratioP1;P1;durP2;ratioP2;P2;SDS_P1;SDS_P2;PMS_P1;PMS_P2;Temp;Humidity;BMP_temperature;BMP_pressure;BME280_temperature;BME280_humidity;BME280_pressure;Samples;Min_cycle;Max_cycle;Signal;HPM_P1;HPM_P2
2022/08/03 00:00:06;;;;;;;2.65;1.83;;;20.70;67.90;;;;;;4944509;29;20035;-70
2022/08/03 00:02:38;;;;;;;4.38;2.33;;;20.70;68.10;;;;;;4942938;28;20042;-70
2022/08/03 00:05:07;;;;;;;4.78;2.50;;;20.70;68.80;;;;;;4940940;29;20043;-70
2022/08/03 00:07:33;;;;;;;3.47;2.03;;;20.60;68.20;;;;;;4942609;29;20396;-70
2022/08/03 00:09:59;;;;;;;6.10;2.17;;;20.60;68.40;;;;;;4938578;29;20253;-70
2022/08/03 00:12:24;;;;;;;3.47;2.22;;;20.60;68.60;;;;;;4938418;28;20524;-70
2022/08/03 00:14:50;;;;;;;6.03;2.08;;;20.50;68.60;;;;;;4936698;29;20039;-70
2022/08/03 00:17:16;;;;;;;4.10;1.95;;;20.50;68.60;;;;;;4942389;28;20016;-70
2022/08/03 00:19:41;;;;;;;5.75;2.10;;;20.50;68.50;;;;;;4944191;28;20063;-70
2022/08/03 00:22:07;;;;;;;3.17;2.08;;;20.40;68.40;;;;;;4941544;28;20031;-70
2022/08/03 00:24:35;;;;;;;2.97;1.80;;;20.50;68.40;;;;;;4940315;29;20126;-70
2022/08/03 00:27:00;;;;;;;2.92;1.90;;;20.50;68.40;;;;;;4941358;28;20093;-70
2022/08/03 00:29:26;;;;;;;3.30;1.90;;;20.50;68.60;;;;;;4943519;29;20027;-70
2022/08/03 00:31:52;;;;;;;2.63;1.92;;;20.50;68.70;;;;;;4938864;28;20074;-70
2022/08/03 00:34:18;;;;;;;2.42;1.88;;;20.60;68.80;;;;;;4937624;29;20557;-70
2022/08/03 00:36:44;;;;;;;2.90;1.70;;;20.60;69.00;;;;;;4945908;28;20045;-70
2022/08/03 00:39:09;;;;;;;3.80;2.30;;;20.60;69.20;;;;;;4944045;28;20043;-70
2022/08/03 00:41:35;;;;;;;2.10;1.90;;;20.60;69.40;;;;;;4942201;28;20023;-70
2022/08/03 00:44:01;;;;;;;2.15;1.80;;;20.60;69.70;;;;;;4940444;28;20126;-70
2022/08/03 00:46:27;;;;;;;4.57;2.00;;;20.70;69.90;;;;;;4939851;29;20063;-70
2022/08/03 00:48:53;;;;;;;2.13;1.90;;;20.70;70.00;;;;;;4938186;29;20534;-70
2022/08/03 00:51:20;;;;;;;3.42;2.10;;;20.70;70.00;;;;;;4937164;28;20028;-70
2022/08/03 00:53:46;;;;;;;1.80;1.70;;;20.70;70.00;;;;;;4937972;28;20722;-70
2022/08/03 00:56:14;;;;;;;3.47;1.90;;;20.70;69.80;;;;;;4943974;28;20514;-70
2022/08/03 00:58:40;;;;;;;4.55;2.10;;;20.80;69.80;;;;;;4943152;28;20039;-70
2022/08/03 01:01:06;;;;;;;8.40;2.30;;;20.80;69.70;;;;;;4941037;28;20035;-70
2022/08/03 01:03:32;;;;;;;1.65;1.55;;;20.80;69.50;;;;;;4940588;28;20046;-70
2022/08/03 01:06:24;;;;;;;2.95;2.00;;;20.80;69.10;;;;;;4938570;28;20043;-70
2022/08/03 01:08:58;;;;;;;4.25;2.22;;;20.80;69.00;;;;;;4934507;29;20169;-70
2022/08/03 01:11:24;;;;;;;2.58;2.00;;;20.80;68.70;;;;;;4936583;28;20035;-70
2022/08/03 01:14:03;;;;;;;5.28;1.90;;;20.80;68.30;;;;;;4940216;28;20027;-70
2022/08/03 01:16:46;;;;;;;2.85;1.77;;;20.90;68.00;;;;;;4942774;29;20105;-70
2022/08/03 01:19:33;;;;;;;3.72;1.98;;;20.90;67.90;;;;;;4940269;28;20114;-70
2022/08/03 01:22:28;;;;;;;4.15;1.90;;;20.90;67.60;;;;;;4938704;28;20035;-70
2022/08/03 01:25:52;;;;;;;2.40;1.80;;;20.90;67.50;;;;;;4938184;29;20455;-70
2022/08/03 01:28:33;;;;;;;3.40;1.77;;;21.00;67.00;;;;;;4895995;29;20577;-70
2022/08/03 01:31:03;;;;;;;3.33;2.10;;;21.00;66.90;;;;;;4892975;29;20151;-70
2022/08/03 01:33:41;;;;;;;2.78;2.00;;;21.00;66.30;;;;;;4926382;28;20039;-70
2022/08/03 01:36:12;;;;;;;2.40;1.88;;;21.00;66.00;;;;;;4939485;29;20074;-69
2022/08/03 01:38:45;;;;;;;1.73;1.50;;;21.10;65.70;;;;;;4941111;28;20034;-70
2022/08/03 01:41:16;;;;;;;2.08;1.70;;;21.10;65.20;;;;;;4937936;28;20039;-70
2022/08/03 01:43:47;;;;;;;3.05;1.70;;;21.10;64.40;;;;;;4938631;28;20043;-70
2022/08/03 01:46:14;;;;;;;2.15;1.63;;;21.10;64.20;;;;;;4935552;29;20082;-70
2022/08/03 01:48:42;;;;;;;2.22;1.70;;;21.10;63.80;;;;;;4940416;28;20027;-70
2022/08/03 01:51:09;;;;;;;3.22;1.60;;;21.10;63.50;;;;;;4939449;28;20039;-70
2022/08/03 01:53:38;;;;;;;2.08;1.48;;;21.10;63.70;;;;;;4941989;28;20027;-70
2022/08/03 01:56:05;;;;;;;4.30;1.58;;;21.10;63.30;;;;;;4940314;28;20046;-70
2022/08/03 01:58:33;;;;;;;2.65;1.65;;;21.10;63.00;;;;;;4937188;29;20877;-70
2022/08/03 02:01:01;;;;;;;2.63;1.67;;;21.10;63.00;;;;;;4937579;28;20046;-70
2022/08/03 02:03:28;;;;;;;3.88;1.60;;;21.10;62.60;;;;;;4936631;28;20035;-70
2022/08/03 02:05:56;;;;;;;2.45;1.40;;;21.10;62.50;;;;;;4935159;29;20051;-70
2022/08/03 02:08:24;;;;;;;3.58;1.80;;;21.00;62.40;;;;;;4934350;29;20038;-70
2022/08/03 02:10:51;;;;;;;2.13;1.48;;;21.00;62.60;;;;;;4938433;28;20475;-70
2022/08/03 02:13:19;;;;;;;2.85;1.42;;;21.00;62.00;;;;;;4940533;28;20035;-69
2022/08/03 02:15:46;;;;;;;3.75;1.70;;;20.90;61.90;;;;;;4940599;28;20055;-70
2022/08/03 02:18:13;;;;;;;1.77;1.40;;;20.90;62.10;;;;;;4938250;28;20040;-70
2022/08/03 02:20:41;;;;;;;3.25;2.35;;;21.00;62.30;;;;;;4939353;28;20034;-70
2022/08/03 02:23:08;;;;;;;2.17;1.80;;;21.00;62.10;;;;;;4934851;28;20080;-70
2022/08/03 02:25:40;;;;;;;1.73;1.55;;;20.90;62.70;;;;;;4936958;28;20073;-70
2022/08/03 02:28:10;;;;;;;1.75;1.52;;;20.90;62.30;;;;;;4936929;29;20031;-70
2022/08/03 02:30:39;;;;;;;2.63;1.48;;;20.90;62.00;;;;;;4946004;28;20030;-69
2022/08/03 02:33:16;;;;;;;2.00;1.45;;;20.90;62.20;;;;;;4940896;28;20451;-70
2022/08/03 02:35:43;;;;;;;2.40;1.45;;;20.90;62.30;;;;;;4937937;29;20064;-70
2022/08/03 02:38:12;;;;;;;3.50;1.70;;;20.90;61.30;;;;;;4938129;28;20519;-70
2022/08/03 02:40:40;;;;;;;3.78;1.67;;;21.00;61.10;;;;;;4942192;28;20042;-70
2022/08/03 02:43:13;;;;;;;2.40;1.30;;;21.00;61.10;;;;;;4938687;28;20539;-70
2022/08/03 02:45:44;;;;;;;6.82;1.80;;;21.00;61.10;;;;;;4940515;29;20119;-70
2022/08/03 02:48:11;;;;;;;2.17;1.27;;;21.10;60.80;;;;;;4945170;29;20182;-70
2022/08/03 02:50:38;;;;;;;2.38;1.23;;;21.10;60.30;;;;;;4947196;28;20691;-70
2022/08/03 02:53:05;;;;;;;4.63;1.60;;;21.10;59.90;;;;;;4944916;28;20042;-70
2022/08/03 02:55:34;;;;;;;5.70;1.50;;;21.20;60.50;;;;;;4945542;28;20027;-70
2022/08/03 02:58:01;;;;;;;3.80;1.30;;;21.20;60.00;;;;;;4940903;29;20050;-70
2022/08/03 03:00:30;;;;;;;1.95;1.25;;;21.20;60.20;;;;;;4940985;29;20039;-70
2022/08/03 03:03:01;;;;;;;1.58;1.30;;;21.20;60.00;;;;;;4942555;28;20411;-70
2022/08/03 03:05:28;;;;;;;1.80;1.10;;;21.30;59.60;;;;;;4938836;29;20071;-70
2022/08/03 03:07:54;;;;;;;2.80;1.33;;;21.30;59.60;;;;;;4945774;28;20027;-70
2022/08/03 03:10:24;;;;;;;1.98;1.08;;;21.30;59.90;;;;;;4944095;29;20503;-70
2022/08/03 03:12:55;;;;;;;1.25;1.10;;;21.30;59.80;;;;;;4943490;28;20035;-70
2022/08/03 03:15:22;;;;;;;2.70;1.30;;;21.30;59.60;;;;;;4941519;29;20047;-70
2022/08/03 03:17:50;;;;;;;1.45;1.20;;;21.30;59.80;;;;;;4941509;28;20039;-70
2022/08/03 03:20:17;;;;;;;4.82;1.48;;;21.30;59.70;;;;;;4938295;29;20040;-70
2022/08/03 03:22:44;;;;;;;2.58;1.33;;;21.30;59.40;;;;;;4938334;28;20090;-70
2022/08/03 03:25:10;;;;;;;2.65;1.45;;;21.30;60.10;;;;;;4939501;29;20039;-70
2022/08/03 03:27:36;;;;;;;3.85;1.70;;;21.30;60.60;;;;;;4946464;28;20742;-70
2022/08/03 03:30:03;;;;;;;2.78;1.92;;;21.30;61.70;;;;;;4943672;29;20031;-70
2022/08/03 03:32:29;;;;;;;2.50;1.50;;;21.30;61.50;;;;;;4945336;28;20080;-70
2022/08/03 03:34:58;;;;;;;2.00;1.60;;;21.20;60.70;;;;;;4941506;28;20672;-69
2022/08/03 03:37:25;;;;;;;2.22;1.70;;;21.20;60.20;;;;;;4940168;29;20028;-70
2022/08/03 03:39:53;;;;;;;2.17;1.42;;;21.10;60.20;;;;;;4938499;29;20037;-70
2022/08/03 03:42:19;;;;;;;1.60;1.40;;;21.10;60.70;;;;;;4936890;28;20036;-70
2022/08/03 03:44:45;;;;;;;1.80;1.50;;;21.00;61.00;;;;;;4941941;29;20144;-70
2022/08/03 03:47:12;;;;;;;1.50;1.20;;;20.90;60.50;;;;;;4944081;28;20747;-70
2022/08/03 03:49:39;;;;;;;1.50;1.40;;;20.90;60.40;;;;;;4943601;28;20394;-70
2022/08/03 03:52:05;;;;;;;3.13;1.40;;;20.90;60.10;;;;;;4939597;28;20027;-70
2022/08/03 03:54:41;;;;;;;1.60;1.35;;;20.90;59.50;;;;;;4944092;28;20778;-69
2022/08/03 03:57:07;;;;;;;;;;;20.80;59.30;;;;;;4936434;29;20039;-70
2022/08/03 03:59:39;;;;;;;1.45;1.25;;;20.80;59.10;;;;;;4939628;28;20068;-70
2022/08/03 04:02:07;;;;;;;1.67;1.30;;;20.80;59.20;;;;;;4934591;28;20040;-70
2022/08/03 04:12:59;;;;;;;2.95;1.40;;;20.70;60.00;;;;;;4940301;28;20471;-69
2022/08/03 04:15:27;;;;;;;1.23;1.10;;;20.60;59.90;;;;;;4939880;29;20139;-70
2022/08/03 04:17:57;;;;;;;1.67;1.08;;;20.70;59.70;;;;;;4940084;29;20162;-70
2022/08/03 04:20:25;;;;;;;1.38;1.20;;;20.60;59.60;;;;;;4936790;29;20042;-70
2022/08/03 04:22:53;;;;;;;1.30;0.98;;;20.60;59.30;;;;;;4955687;28;20065;-70
2022/08/03 04:25:21;;;;;;;2.25;1.30;;;20.60;59.00;;;;;;4943168;28;20043;-70
2022/08/03 04:27:48;;;;;;;2.67;1.27;;;20.60;59.10;;;;;;4943300;28;20042;-70
2022/08/03 04:30:14;;;;;;;1.83;1.15;;;20.60;59.20;;;;;;4940833;28;20040;-70
2022/08/03 04:32:42;;;;;;;2.72;1.30;;;20.60;59.30;;;;;;4940419;28;20031;-70
2022/08/03 04:35:08;;;;;;;1.27;1.08;;;20.60;59.20;;;;;;4939836;29;20082;-70
2022/08/03 04:37:42;;;;;;;1.55;1.20;;;20.60;59.10;;;;;;4941471;28;20085;-70
2022/08/03 04:40:12;;;;;;;1.63;1.38;;;20.60;59.40;;;;;;4933416;29;20822;-70
2022/08/03 04:42:39;;;;;;;2.58;1.27;;;20.60;59.50;;;;;;4943460;28;20062;-70
2022/08/03 04:45:06;;;;;;;1.90;1.10;;;20.60;59.20;;;;;;4941202;28;20027;-70
2022/08/03 04:47:33;;;;;;;1.55;1.42;;;20.50;59.40;;;;;;4941810;28;20094;-70
2022/08/03 04:50:06;;;;;;;1.70;1.20;;;20.50;59.70;;;;;;4939810;28;20039;-70
2022/08/03 04:52:33;;;;;;;1.98;1.77;;;20.60;59.40;;;;;;4939740;28;20035;-70
2022/08/03 04:54:59;;;;;;;1.10;1.00;;;20.60;59.40;;;;;;4939208;28;20090;-70
2022/08/03 04:57:25;;;;;;;1.85;1.23;;;20.60;59.60;;;;;;4937007;29;20065;-70
2022/08/03 04:59:55;;;;;;;1.70;1.23;;;20.60;59.90;;;;;;4940683;28;20551;-69
2022/08/03 05:02:22;;;;;;;2.15;1.20;;;20.60;60.30;;;;;;4941034;28;20563;-70
2022/08/03 05:04:48;;;;;;;1.75;1.10;;;20.60;60.60;;;;;;4942194;28;20066;-70
2022/08/03 05:07:15;;;;;;;1.40;1.15;;;20.60;61.20;;;;;;4941038;28;20784;-70
2022/08/03 05:09:41;;;;;;;1.40;1.30;;;20.70;61.70;;;;;;4944481;28;20043;-70
2022/08/03 05:12:07;;;;;;;2.67;1.40;;;20.70;61.40;;;;;;4937310;28;20035;-70
2022/08/03 05:14:36;;;;;;;3.25;1.40;;;20.70;61.10;;;;;;4938904;28;20027;-70
2022/08/03 05:17:03;;;;;;;1.23;1.13;;;20.70;61.20;;;;;;4934048;28;20800;-70
2022/08/03 05:19:29;;;;;;;4.22;1.42;;;20.70;61.10;;;;;;4943878;29;20039;-70
2022/08/03 05:21:55;;;;;;;1.67;1.27;;;20.80;61.60;;;;;;4942439;28;20492;-70
2022/08/03 05:24:20;;;;;;;2.67;1.58;;;20.80;61.60;;;;;;4940586;29;20055;-70
2022/08/03 05:26:46;;;;;;;1.30;1.20;;;20.80;62.00;;;;;;4940984;28;20035;-70
2022/08/03 05:29:12;;;;;;;1.65;1.45;;;20.90;62.50;;;;;;4940098;28;20768;-70
2022/08/03 05:31:37;;;;;;;3.95;1.33;;;20.90;62.30;;;;;;4940019;28;20037;-71
2022/08/03 05:34:03;;;;;;;3.63;1.40;;;21.00;62.60;;;;;;4935049;29;20090;-70
2022/08/03 05:36:29;;;;;;;4.95;1.58;;;21.00;63.00;;;;;;4937271;29;20031;-70
2022/08/03 05:38:55;;;;;;;3.38;1.40;;;21.10;62.90;;;;;;4944020;28;20039;-70
2022/08/03 05:41:20;;;;;;;1.30;1.20;;;21.20;63.40;;;;;;4942588;28;20894;-70
2022/08/03 05:43:46;;;;;;;1.58;1.48;;;21.20;63.80;;;;;;4941129;28;20055;-70
2022/08/03 05:46:12;;;;;;;1.73;1.27;;;21.30;64.00;;;;;;4942187;28;20695;-70
2022/08/03 05:48:38;;;;;;;2.35;1.50;;;21.40;63.40;;;;;;4939666;29;20033;-70
2022/08/03 05:51:06;;;;;;;1.77;1.48;;;21.50;62.80;;;;;;4935181;29;20046;-70
2022/08/03 05:53:35;;;;;;;1.30;1.20;;;21.60;62.90;;;;;;4936097;28;20046;-70
2022/08/03 05:56:01;;;;;;;2.78;1.45;;;21.70;62.40;;;;;;4940025;29;20035;-70
2022/08/03 05:58:27;;;;;;;4.20;1.50;;;21.80;62.20;;;;;;4942289;28;20042;-70
2022/08/03 06:00:53;;;;;;;3.03;1.98;;;21.90;62.10;;;;;;4942449;28;20035;-70
2022/08/03 06:03:19;;;;;;;3.65;1.80;;;21.90;62.00;;;;;;4938619;28;20043;-70
2022/08/03 06:05:44;;;;;;;1.85;1.23;;;22.00;62.80;;;;;;4939360;28;20027;-70
2022/08/03 06:08:10;;;;;;;3.05;1.70;;;22.10;61.50;;;;;;4935788;28;20031;-70
2022/08/03 06:10:36;;;;;;;3.72;1.58;;;22.20;60.90;;;;;;4937483;28;20740;-70
2022/08/03 06:13:02;;;;;;;1.60;1.50;;;22.40;60.90;;;;;;4932011;28;20036;-69
2022/08/03 06:15:29;;;;;;;3.20;1.40;;;22.50;60.90;;;;;;4938895;28;20042;-70
2022/08/03 06:17:56;;;;;;;5.80;1.77;;;22.60;60.50;;;;;;4942030;28;20039;-70
2022/08/03 06:20:22;;;;;;;4.20;1.70;;;22.70;59.90;;;;;;4939869;28;20035;-70
2022/08/03 06:22:48;;;;;;;4.80;1.50;;;22.90;59.50;;;;;;4939504;28;20042;-70
2022/08/03 06:25:15;;;;;;;3.03;1.60;;;23.10;58.90;;;;;;4936530;28;20032;-70
2022/08/03 06:27:41;;;;;;;2.30;1.50;;;23.20;58.20;;;;;;4937835;29;20031;-70
2022/08/03 06:30:12;;;;;;;1.90;1.38;;;23.40;57.60;;;;;;4933941;28;20039;-70
2022/08/03 06:32:39;;;;;;;3.03;1.48;;;23.60;57.10;;;;;;4931621;28;20040;-70
2022/08/03 06:35:06;;;;;;;3.03;1.40;;;23.70;56.60;;;;;;4939472;29;20098;-70
2022/08/03 06:37:46;;;;;;;3.90;1.40;;;23.80;56.20;;;;;;4941675;29;20042;-70
2022/08/03 06:40:13;;;;;;;2.08;1.30;;;23.90;55.60;;;;;;4939181;28;20488;-70
2022/08/03 06:42:40;;;;;;;4.63;1.40;;;24.20;54.40;;;;;;4939392;28;20032;-70
2022/08/03 06:45:07;;;;;;;3.20;1.20;;;24.30;53.90;;;;;;4936171;28;20044;-70
2022/08/03 06:47:37;;;;;;;3.65;1.20;;;24.50;52.60;;;;;;4938088;28;20023;-70
2022/08/03 06:50:05;;;;;;;5.35;1.20;;;24.70;51.40;;;;;;4933451;28;20552;-70
2022/08/03 06:52:31;;;;;;;4.85;1.33;;;24.80;50.50;;;;;;4939028;28;20134;-70
2022/08/03 06:54:57;;;;;;;3.20;1.40;;;24.90;51.20;;;;;;4943483;28;20439;-70
2022/08/03 06:57:23;;;;;;;6.05;1.77;;;25.00;51.10;;;;;;4940799;29;20032;-70
2022/08/03 06:59:48;;;;;;;2.38;1.20;;;25.10;51.60;;;;;;4935820;29;20063;-70
2022/08/03 07:02:14;;;;;;;4.32;1.38;;;25.20;52.00;;;;;;4938860;28;20082;-70
2022/08/03 07:04:40;;;;;;;6.28;1.50;;;25.30;51.90;;;;;;4938624;28;20031;-70
2022/08/03 07:07:05;;;;;;;7.53;1.70;;;25.40;52.00;;;;;;4934365;29;20495;-70
2022/08/03 07:09:31;;;;;;;3.47;1.42;;;25.50;50.10;;;;;;4937146;28;20034;-70
2022/08/03 07:11:58;;;;;;;2.70;1.48;;;25.60;50.60;;;;;;4938964;28;20046;-70
2022/08/03 07:14:23;;;;;;;2.03;1.38;;;25.70;50.60;;;;;;4941933;28;20401;-70
2022/08/03 07:16:49;;;;;;;2.42;1.33;;;25.80;50.40;;;;;;4941304;28;20035;-70
2022/08/03 07:19:15;;;;;;;2.88;1.50;;;26.00;49.30;;;;;;4938338;28;20024;-71
2022/08/03 07:21:41;;;;;;;2.88;1.23;;;26.00;49.40;;;;;;4939139;28;20077;-70
2022/08/03 07:24:07;;;;;;;2.33;1.38;;;26.20;49.00;;;;;;4936743;28;20035;-70
2022/08/03 07:26:32;;;;;;;1.65;1.38;;;26.30;47.90;;;;;;4939951;29;20046;-70
2022/08/03 07:29:00;;;;;;;1.55;1.20;;;26.40;47.20;;;;;;4938216;28;20039;-70
2022/08/03 07:31:26;;;;;;;4.38;1.60;;;26.50;47.20;;;;;;4948677;28;20065;-70
2022/08/03 07:33:52;;;;;;;2.45;1.48;;;26.60;47.10;;;;;;4944169;29;20035;-70
2022/08/03 07:36:18;;;;;;;1.30;1.10;;;26.70;46.70;;;;;;4942655;28;20075;-70
2022/08/03 07:38:43;;;;;;;3.28;1.45;;;26.70;46.80;;;;;;4942633;28;20069;-70
2022/08/03 07:41:09;;;;;;;2.30;1.17;;;26.80;47.00;;;;;;4939081;28;20093;-70
2022/08/03 07:43:35;;;;;;;2.10;1.50;;;26.90;47.10;;;;;;4939577;28;20031;-70
2022/08/03 07:46:01;;;;;;;1.92;1.30;;;26.90;45.30;;;;;;4936476;28;20106;-70
2022/08/03 07:48:26;;;;;;;2.53;1.30;;;27.00;44.90;;;;;;4941177;29;20086;-70
2022/08/03 07:50:52;;;;;;;2.22;1.25;;;27.10;45.10;;;;;;4945402;29;20110;-70
2022/08/03 07:53:18;;;;;;;1.15;0.90;;;27.20;45.10;;;;;;4942578;28;20464;-70
2022/08/03 07:55:44;;;;;;;1.73;1.40;;;27.20;44.90;;;;;;4943230;28;20034;-70
2022/08/03 07:58:14;;;;;;;2.30;1.20;;;27.30;44.90;;;;;;4940518;28;20048;-70
2022/08/03 08:00:40;;;;;;;2.08;1.30;;;27.40;44.80;;;;;;4941117;28;20031;-70
2022/08/03 08:03:06;;;;;;;1.50;1.27;;;27.50;44.70;;;;;;4936202;28;20039;-71
2022/08/03 08:05:32;;;;;;;2.75;1.17;;;27.50;44.90;;;;;;4938968;28;20066;-70
2022/08/03 08:08:00;;;;;;;1.95;1.15;;;27.50;44.30;;;;;;4938901;29;20047;-70
2022/08/03 08:10:26;;;;;;;2.92;1.25;;;27.60;44.10;;;;;;4944669;29;20444;-70
2022/08/03 08:12:52;;;;;;;2.83;1.38;;;27.60;43.90;;;;;;4943478;28;20086;-70
2022/08/03 08:15:18;;;;;;;1.70;1.38;;;27.80;44.00;;;;;;4940695;29;20485;-70
2022/08/03 08:17:45;;;;;;;5.13;1.60;;;27.90;43.90;;;;;;4941891;28;20039;-70
2022/08/03 08:20:15;;;;;;;6.18;1.30;;;27.90;43.90;;;;;;4938070;28;20036;-70
2022/08/03 08:22:41;;;;;;;2.45;1.10;;;28.00;43.50;;;;;;4938206;28;20035;-70
2022/08/03 08:25:07;;;;;;;2.92;1.10;;;28.10;43.90;;;;;;4935034;29;20712;-70
2022/08/03 08:27:39;;;;;;;3.22;1.30;;;28.20;43.00;;;;;;4941288;29;20571;-70
2022/08/03 08:30:06;;;;;;;4.05;1.30;;;28.30;42.80;;;;;;4943250;28;20114;-70
2022/08/03 08:32:31;;;;;;;7.95;1.35;;;28.30;42.60;;;;;;4939786;28;20042;-70
2022/08/03 08:34:57;;;;;;;2.13;1.10;;;28.40;43.10;;;;;;4941350;28;20039;-70
2022/08/03 08:37:23;;;;;;;2.92;1.40;;;28.50;42.60;;;;;;4940017;28;20039;-70
2022/08/03 08:39:48;;;;;;;4.80;1.38;;;28.60;41.60;;;;;;4939696;28;20027;-70
2022/08/03 08:42:14;;;;;;;2.55;1.30;;;28.70;42.10;;;;;;4936426;28;20709;-70
2022/08/03 08:44:40;;;;;;;2.45;1.10;;;28.90;41.70;;;;;;4937084;28;20039;-70
2022/08/03 08:47:08;;;;;;;1.55;1.10;;;28.90;40.60;;;;;;4941814;29;20035;-70
2022/08/03 08:49:36;;;;;;;1.73;1.10;;;29.00;41.20;;;;;;4943911;28;20029;-70
2022/08/03 08:52:04;;;;;;;3.15;1.23;;;29.10;41.00;;;;;;4941362;28;20035;-70
2022/08/03 08:54:32;;;;;;;2.47;1.23;;;29.10;40.50;;;;;;4941002;29;20488;-70
2022/08/03 08:57:01;;;;;;;3.30;1.20;;;29.20;41.30;;;;;;4938895;28;20492;-71
2022/08/03 08:59:27;;;;;;;5.50;1.52;;;29.30;40.50;;;;;;4938980;29;20027;-70
2022/08/03 09:01:57;;;;;;;2.80;1.35;;;29.30;40.30;;;;;;4936171;28;20046;-70
2022/08/03 09:04:23;;;;;;;1.58;1.10;;;29.30;40.30;;;;;;4936025;29;20031;-70
2022/08/03 09:06:49;;;;;;;2.10;1.20;;;29.30;40.40;;;;;;4944140;28;20034;-70
2022/08/03 09:09:16;;;;;;;3.88;1.10;;;29.40;41.50;;;;;;4941878;28;20034;-71
2022/08/03 09:11:42;;;;;;;3.25;1.40;;;29.50;40.70;;;;;;4955853;28;20035;-70
2022/08/03 09:14:09;;;;;;;1.63;1.40;;;29.60;40.70;;;;;;4938665;28;20044;-71
2022/08/03 09:16:35;;;;;;;1.08;1.00;;;29.70;40.10;;;;;;4944406;28;20038;-70
2022/08/03 09:19:12;;;;;;;1.23;1.10;;;29.80;40.50;;;;;;4936258;29;20031;-71
2022/08/03 09:21:38;;;;;;;3.67;1.38;;;29.80;40.10;;;;;;4933429;28;20046;-70
2022/08/03 09:24:05;;;;;;;3.47;1.50;;;29.90;40.50;;;;;;4940963;29;20032;-70
2022/08/03 09:26:33;;;;;;;4.82;1.15;;;30.00;40.30;;;;;;4943381;29;20503;-70
2022/08/03 09:29:09;;;;;;;1.67;1.10;;;30.10;39.90;;;;;;4942137;28;20373;-70
2022/08/03 09:31:42;;;;;;;2.30;1.10;;;30.20;39.80;;;;;;4940715;28;20067;-70
2022/08/03 09:34:11;;;;;;;1.20;1.10;;;30.20;40.00;;;;;;4937165;28;20531;-70
2022/08/03 09:36:45;;;;;;;2.42;1.40;;;30.30;39.90;;;;;;4938686;28;20090;-71
2022/08/03 09:39:22;;;;;;;3.15;1.17;;;30.40;39.70;;;;;;4936690;29;20036;-71
2022/08/03 09:42:04;;;;;;;1.20;1.10;;;30.50;39.70;;;;;;4938244;28;20058;-71
2022/08/03 09:44:41;;;;;;;1.40;1.27;;;30.60;40.00;;;;;;4944457;28;20868;-71
2022/08/03 09:47:11;;;;;;;2.42;1.23;;;30.70;39.50;;;;;;4940750;28;20039;-71
2022/08/03 09:49:41;;;;;;;2.15;1.40;;;30.80;39.10;;;;;;4942000;28;20039;-71
2022/08/03 09:52:15;;;;;;;2.35;1.30;;;30.70;39.20;;;;;;4937058;28;20035;-71
2022/08/03 09:54:42;;;;;;;5.00;1.17;;;30.80;39.60;;;;;;4933642;29;20028;-71
2022/08/03 09:57:18;;;;;;;1.73;1.05;;;30.90;39.20;;;;;;4937498;29;20134;-71
2022/08/03 09:59:44;;;;;;;3.35;1.20;;;31.00;39.60;;;;;;4936211;29;20182;-71
2022/08/03 10:02:23;;;;;;;2.13;1.55;;;31.10;39.70;;;;;;4940083;28;20130;-71
2022/08/03 10:04:51;;;;;;;2.65;1.13;;;31.20;39.40;;;;;;4941905;28;20744;-71
2022/08/03 10:07:19;;;;;;;3.53;1.40;;;31.20;39.00;;;;;;4939723;29;20687;-71
2022/08/03 10:09:57;;;;;;;2.55;1.20;;;31.30;39.50;;;;;;4940041;28;20058;-70
2022/08/03 10:12:23;;;;;;;2.65;1.20;;;31.30;38.90;;;;;;4937633;28;20118;-71
2022/08/03 10:14:50;;;;;;;4.43;1.30;;;31.30;39.60;;;;;;4936808;28;20861;-70
2022/08/03 10:17:15;;;;;;;1.25;1.08;;;31.30;39.10;;;;;;4934794;29;20028;-71
2022/08/03 10:19:41;;;;;;;6.10;1.60;;;31.30;39.30;;;;;;4935812;28;20448;-71
2022/08/03 10:22:28;;;;;;;2.03;1.40;;;31.30;38.90;;;;;;4941123;28;20116;-70
2022/08/03 10:25:13;;;;;;;1.60;1.50;;;31.30;39.20;;;;;;4937914;29;20039;-71
2022/08/03 10:27:41;;;;;;;1.95;1.45;;;31.20;38.80;;;;;;4934279;29;20034;-71
2022/08/03 10:30:09;;;;;;;1.52;1.25;;;31.30;39.40;;;;;;4936413;28;20499;-71
2022/08/03 10:32:38;;;;;;;1.75;1.10;;;31.40;39.00;;;;;;4935424;28;20042;-71
2022/08/03 10:35:11;;;;;;;1.70;1.38;;;31.40;39.10;;;;;;4938020;29;20117;-71
2022/08/03 10:37:51;;;;;;;1.83;1.25;;;31.40;39.10;;;;;;4935435;29;20039;-71
2022/08/03 10:40:20;;;;;;;4.05;1.55;;;31.40;39.20;;;;;;4940544;29;20027;-70
2022/08/03 10:42:48;;;;;;;1.42;1.30;;;31.40;38.80;;;;;;4940627;28;20138;-71
2022/08/03 10:45:27;;;;;;;2.80;1.25;;;31.50;39.10;;;;;;4938464;28;20040;-71
2022/08/03 10:47:54;;;;;;;2.75;1.33;;;31.50;39.00;;;;;;4936972;29;20476;-71
2022/08/03 10:50:23;;;;;;;2.22;1.17;;;31.50;39.50;;;;;;4935969;29;20032;-71
2022/08/03 10:52:57;;;;;;;3.63;1.83;;;31.60;39.20;;;;;;4935514;28;20433;-71
2022/08/03 10:58:39;;;;;;;1.45;1.10;;;31.70;39.40;;;;;;4937492;29;20039;-71
2022/08/03 11:01:10;;;;;;;2.53;1.20;;;31.80;39.10;;;;;;4941265;28;20039;-71
2022/08/03 11:03:51;;;;;;;2.65;1.40;;;31.80;38.40;;;;;;4943551;28;20035;-71
2022/08/03 11:06:23;;;;;;;2.20;1.30;;;31.90;38.80;;;;;;4940205;29;20055;-71
2022/08/03 11:09:08;;;;;;;1.50;1.13;;;32.00;39.10;;;;;;4940225;29;20821;-71
2022/08/03 11:11:37;;;;;;;3.67;1.30;;;32.10;38.90;;;;;;4939757;28;20027;-69
2022/08/03 11:14:08;;;;;;;2.15;1.20;;;32.10;38.60;;;;;;4935991;28;20038;-71
2022/08/03 11:16:41;;;;;;;3.25;1.20;;;32.10;38.80;;;;;;4935149;29;20038;-71
2022/08/03 11:19:13;;;;;;;3.08;1.65;;;32.10;39.10;;;;;;4944395;28;20047;-71
2022/08/03 11:21:48;;;;;;;2.47;1.77;;;32.20;39.10;;;;;;4943190;28;20070;-71
2022/08/03 11:24:36;;;;;;;1.23;1.00;;;32.20;38.90;;;;;;4941451;29;20040;-70
2022/08/03 11:27:16;;;;;;;1.77;1.23;;;32.40;39.20;;;;;;4939551;29;20039;-71
2022/08/03 11:30:03;;;;;;;2.05;1.20;;;32.60;38.80;;;;;;4939301;29;20029;-71
2022/08/03 11:32:45;;;;;;;2.10;1.15;;;32.70;39.10;;;;;;4938917;28;20035;-71
2022/08/03 11:35:29;;;;;;;1.73;1.13;;;32.90;38.40;;;;;;4939203;29;20043;-71
2022/08/03 11:37:58;;;;;;;1.25;1.15;;;32.90;38.20;;;;;;4945740;28;20067;-71
2022/08/03 11:40:36;;;;;;;1.67;1.10;;;32.80;38.50;;;;;;4944056;29;20031;-71
2022/08/03 11:43:04;;;;;;;3.53;1.35;;;32.80;38.70;;;;;;4940225;28;20027;-71
2022/08/03 11:45:30;;;;;;;4.13;1.40;;;32.90;38.70;;;;;;4942215;29;20079;-71
2022/08/03 11:47:57;;;;;;;3.10;1.25;;;33.00;38.90;;;;;;4939609;28;20031;-71
2022/08/03 11:50:24;;;;;;;1.30;1.20;;;32.90;38.00;;;;;;4942845;29;20063;-71
2022/08/03 11:52:50;;;;;;;1.30;1.20;;;33.00;37.90;;;;;;4938033;28;20046;-71
2022/08/03 11:55:20;;;;;;;2.35;1.20;;;32.90;37.60;;;;;;4943627;29;20024;-71
2022/08/03 11:57:46;;;;;;;1.60;1.20;;;32.80;37.80;;;;;;4946393;28;20082;-71
2022/08/03 12:00:27;;;;;;;1.52;1.02;;;32.90;38.30;;;;;;4946117;28;20031;-71
2022/08/03 12:03:13;;;;;;;3.45;1.27;;;33.00;37.90;;;;;;4943350;28;20118;-71
2022/08/03 12:05:50;;;;;;;2.65;1.33;;;33.00;37.40;;;;;;4940199;28;20042;-70
2022/08/03 12:08:28;;;;;;;3.38;1.48;;;33.00;37.70;;;;;;4936147;29;20063;-71
2022/08/03 12:10:55;;;;;;;0.98;0.98;;;33.00;38.40;;;;;;4935829;29;20522;-71
2022/08/03 12:13:22;;;;;;;3.40;1.30;;;32.90;38.10;;;;;;4938311;28;20062;-71
2022/08/03 12:15:53;;;;;;;3.75;1.10;;;33.00;38.40;;;;;;4941424;29;20499;-71
2022/08/03 12:18:20;;;;;;;3.00;1.45;;;33.00;38.40;;;;;;4940581;29;20035;-71
2022/08/03 12:20:49;;;;;;;3.35;1.10;;;33.10;38.20;;;;;;4940637;28;20058;-71
2022/08/03 12:23:15;;;;;;;1.42;1.05;;;33.20;38.20;;;;;;4938622;28;20039;-70
2022/08/03 12:25:42;;;;;;;2.78;1.25;;;33.20;37.00;;;;;;4940392;28;20082;-71
2022/08/03 12:28:11;;;;;;;4.00;1.35;;;33.20;37.60;;;;;;4936080;29;20032;-71
2022/08/03 12:30:38;;;;;;;1.35;0.95;;;33.30;38.30;;;;;;4938410;28;20038;-72
2022/08/03 12:33:24;;;;;;;2.15;1.13;;;33.50;38.00;;;;;;4941563;28;20122;-71
2022/08/03 12:36:04;;;;;;;1.90;1.35;;;33.50;37.90;;;;;;4943452;29;20546;-71
2022/08/03 12:38:32;;;;;;;2.22;0.95;;;33.70;37.70;;;;;;4940702;29;20575;-71
2022/08/03 12:41:14;;;;;;;2.58;1.45;;;33.80;37.50;;;;;;4941337;28;20563;-71
2022/08/03 12:43:48;;;;;;;2.53;1.15;;;33.80;37.00;;;;;;4938437;29;20126;-71
2022/08/03 12:46:17;;;;;;;1.23;1.13;;;33.60;37.00;;;;;;4936619;29;20050;-71
2022/08/03 12:49:05;;;;;;;1.00;0.90;;;33.40;37.10;;;;;;4937730;28;20035;-70
2022/08/03 12:51:58;;;;;;;1.10;1.10;;;33.40;36.90;;;;;;4936798;28;20039;-71
2022/08/03 12:54:30;;;;;;;1.42;1.10;;;33.40;36.80;;;;;;4943192;29;20036;-71
2022/08/03 12:57:09;;;;;;;1.52;1.27;;;33.40;37.70;;;;;;4939428;29;20051;-71
2022/08/03 12:59:45;;;;;;;1.67;1.25;;;33.50;37.50;;;;;;4939585;29;20035;-71
2022/08/03 13:02:19;;;;;;;2.72;1.20;;;33.60;37.20;;;;;;4937250;28;20147;-71
2022/08/03 13:04:47;;;;;;;1.13;1.00;;;33.60;36.90;;;;;;4938405;29;20047;-71
2022/08/03 13:07:14;;;;;;;1.98;1.00;;;33.60;36.90;;;;;;4934978;29;20628;-71
2022/08/03 13:09:45;;;;;;;1.35;1.20;;;33.50;37.00;;;;;;4937239;29;20078;-70